Arbutus, Maryland
Current Conditions -  °F | °C
As of 6:54 PM on Thursday 27 Nov 2014 (Local Time) from KBWI Reporting Station
Scattered Clouds Scattered Clouds  
Wind Chill: 32°   Ceiling: Unl
Heat Index: 36°   Visibility: 10mi
Dew Point: 28°   Wind: 5mph
Humidity: 73%   Direction: 300°WNW
Pressure: 30.11"   Gusts: NA
Location:  39.2187°N, 76.722°W
Report Text: KBWI 272354Z 30004KT 10SM SCT060 SCT140 SCT250 02/M02 A3011 RMK AO2 SLP197 T00221022 10078 20022 53018
Loading
Personal Weather Stations






























Interactive Weather Map New forecast layout! Learn more

10-Day Weather Forecast

Advertisements
Track Severe Weather on mobile